createdAt,value
2022-12-04T00:01:30.194Z,16.25
2022-12-04T00:03:59.556Z,17.63
2022-12-04T00:06:27.228Z,17.38
2022-12-04T00:08:54.688Z,17.13
2022-12-04T00:11:24.976Z,17.50
2022-12-04T00:13:52.082Z,16.58
2022-12-04T00:16:26.042Z,17.85
2022-12-04T00:18:54.494Z,17.90
2022-12-04T00:21:27.227Z,16.58
2022-12-04T00:23:54.579Z,17.88
2022-12-04T00:26:23.738Z,18.67
2022-12-04T00:28:51.475Z,17.63
2022-12-04T00:31:20.874Z,17.17
2022-12-04T00:33:49.681Z,16.30
2022-12-04T00:36:19.159Z,16.65
2022-12-04T00:38:46.740Z,16.55
2022-12-04T00:41:16.137Z,18.77
2022-12-04T00:43:47.849Z,16.67
2022-12-04T00:46:16.239Z,18.52
2022-12-04T00:48:46.679Z,18.65
2022-12-04T00:51:20.399Z,17.83
2022-12-04T00:53:52.087Z,18.35
2022-12-04T00:56:21.560Z,16.23
2022-12-04T00:58:55.468Z,17.98
2022-12-04T01:01:22.778Z,16.85
2022-12-04T01:03:50.180Z,17.58
2022-12-04T01:06:32.191Z,18.25
2022-12-04T01:08:59.495Z,17.23
2022-12-04T01:11:28.233Z,18.20
2022-12-04T01:13:56.277Z,17.70
2022-12-04T01:16:25.957Z,18.48
2022-12-04T01:18:56.737Z,18.65
2022-12-04T01:21:23.729Z,19.13
2022-12-04T01:23:50.381Z,19.00
2022-12-04T01:26:17.263Z,19.75
2022-12-04T01:28:44.125Z,20.38
2022-12-04T01:31:14.244Z,20.17
2022-12-04T01:33:42.165Z,19.00
2022-12-04T01:36:12.024Z,20.10
2022-12-04T01:38:41.547Z,19.63
2022-12-04T01:41:14.406Z,19.80
2022-12-04T01:43:41.965Z,18.92
2022-12-04T01:46:09.363Z,18.83
2022-12-04T01:48:44.657Z,20.13
2022-12-04T01:51:24.486Z,18.70
2022-12-04T01:53:54.663Z,18.60
2022-12-04T01:56:29.141Z,20.20
2022-12-04T01:58:58.005Z,18.63
2022-12-04T02:01:27.343Z,19.88
2022-12-04T02:03:54.383Z,19.73
2022-12-04T02:06:20.976Z,20.50
2022-12-04T02:08:49.899Z,20.17
2022-12-04T02:11:27.993Z,19.70
2022-12-04T02:13:57.372Z,18.35
2022-12-04T02:16:35.557Z,18.80
2022-12-04T02:19:22.514Z,19.35
2022-12-04T02:21:54.768Z,18.23
2022-12-04T02:27:08.932Z,18.45
2022-12-04T02:32:24.563Z,17.83
2022-12-04T02:35:10.328Z,18.67
2022-12-04T02:37:43.437Z,17.65
2022-12-04T02:40:25.145Z,18.80
2022-12-04T02:42:59.724Z,14.32
2022-12-04T02:45:35.910Z,19.00
2022-12-04T02:48:05.478Z,19.20
2022-12-04T02:50:36.995Z,19.45
2022-12-04T02:53:10.384Z,20.58
2022-12-04T02:55:57.772Z,20.23
2022-12-04T02:58:33.323Z,18.33
2022-12-04T03:01:02.465Z,20.60
2022-12-04T03:03:30.988Z,19.92
2022-12-04T03:06:10.714Z,19.98
2022-12-04T03:08:53.193Z,19.45
2022-12-04T03:13:53.471Z,18.20
2022-12-04T03:16:27.171Z,17.27
2022-12-04T03:19:01.130Z,18.77
2022-12-04T03:21:35.039Z,18.42
2022-12-04T03:24:10.453Z,21.40
2022-12-04T03:26:50.188Z,19.55
2022-12-04T03:29:23.239Z,20.63
2022-12-04T03:32:06.710Z,20.10
2022-12-04T03:34:58.372Z,21.77
2022-12-04T03:37:36.764Z,20.13
2022-12-04T03:40:14.911Z,19.15
2022-12-04T03:43:04.950Z,20.33
2022-12-04T03:45:45.037Z,20.17
2022-12-04T03:48:52.212Z,19.50
2022-12-04T03:51:24.419Z,18.95
2022-12-04T03:56:32.351Z,18.33
2022-12-04T03:59:09.519Z,18.13
2022-12-04T04:01:42.014Z,19.90
2022-12-04T04:04:15.534Z,20.70
2022-12-04T04:06:51.060Z,20.27
2022-12-04T04:09:22.613Z,20.70
2022-12-04T04:12:05.186Z,19.13
2022-12-04T04:14:57.104Z,20.02
2022-12-04T04:17:46.493Z,19.67
2022-12-04T04:20:37.328Z,20.20
2022-12-04T04:23:25.907Z,19.98
2022-12-04T04:25:53.589Z,18.92
2022-12-04T04:28:40.896Z,20.85
2022-12-04T04:31:30.547Z,19.45
2022-12-04T04:34:24.017Z,18.33
2022-12-04T04:37:15.011Z,19.75
2022-12-04T04:39:47.452Z,19.75
2022-12-04T04:42:17.779Z,18.98
2022-12-04T04:44:47.248Z,19.88
2022-12-04T04:47:27.715Z,20.85
2022-12-04T04:50:05.000Z,18.20
2022-12-04T04:52:34.796Z,18.15
2022-12-04T04:55:03.492Z,18.92
2022-12-04T04:57:35.825Z,19.40
2022-12-04T05:00:07.242Z,18.10
2022-12-04T05:02:38.163Z,18.53
2022-12-04T05:05:06.339Z,17.80
2022-12-04T05:07:33.003Z,17.02
2022-12-04T05:09:59.766Z,18.00
2022-12-04T05:12:26.460Z,19.35
2022-12-04T05:14:53.122Z,17.13
2022-12-04T05:17:19.741Z,18.75
2022-12-04T05:19:58.869Z,18.30
2022-12-04T05:22:31.399Z,17.95
2022-12-04T05:27:28.006Z,16.10
2022-12-04T05:29:56.124Z,16.60
2022-12-04T05:32:26.149Z,16.65
2022-12-04T05:37:27.294Z,16.75
2022-12-04T05:39:54.616Z,15.20
2022-12-04T05:42:24.131Z,16.05
2022-12-04T05:44:50.803Z,16.20
2022-12-04T05:47:17.422Z,16.88
2022-12-04T05:49:45.349Z,17.40
2022-12-04T05:52:14.606Z,16.73
2022-12-04T05:54:41.303Z,16.80
2022-12-04T05:57:08.860Z,16.15
2022-12-04T05:59:35.768Z,17.52
2022-12-04T06:02:02.797Z,18.52
2022-12-04T06:04:29.506Z,16.40
2022-12-04T06:06:58.449Z,17.33
2022-12-04T06:09:25.090Z,15.95
2022-12-04T06:11:51.708Z,16.67
2022-12-04T06:14:20.872Z,16.13
2022-12-04T06:16:47.672Z,15.93
2022-12-04T06:19:18.535Z,15.63
2022-12-04T06:21:49.974Z,15.27
2022-12-04T06:24:22.313Z,10.38
2022-12-04T06:27:25.431Z,15.00
2022-12-04T06:29:38.280Z,14.80
2022-12-04T06:32:07.193Z,15.93
2022-12-04T06:34:38.631Z,16.70
2022-12-04T06:37:12.631Z,15.40
2022-12-04T06:39:39.225Z,14.90
2022-12-04T06:42:08.295Z,14.85
2022-12-04T06:44:37.260Z,16.05
2022-12-04T06:47:03.917Z,15.10
2022-12-04T06:49:34.011Z,13.73
2022-12-04T06:52:03.031Z,14.57
2022-12-04T06:54:30.526Z,14.43
2022-12-04T06:56:57.131Z,14.50
2022-12-04T06:59:24.043Z,13.88
2022-12-04T07:01:53.389Z,14.65
2022-12-04T07:04:20.056Z,13.10
2022-12-04T07:06:46.666Z,13.38
2022-12-04T07:09:20.243Z,13.23
2022-12-04T07:11:46.911Z,14.23
2022-12-04T07:14:14.919Z,13.85
2022-12-04T07:16:43.094Z,13.13
2022-12-04T07:19:11.692Z,13.40
2022-12-04T07:21:38.783Z,14.30
2022-12-04T07:24:05.699Z,13.35
2022-12-04T07:26:32.363Z,13.00
2022-12-04T07:28:59.389Z,14.05
2022-12-04T07:31:27.997Z,13.23
2022-12-04T07:33:55.049Z,13.07
2022-12-04T07:36:23.587Z,13.68
2022-12-04T07:38:50.835Z,13.52
2022-12-04T07:41:20.381Z,12.60
2022-12-04T07:43:47.284Z,13.20
2022-12-04T07:46:19.965Z,13.30
2022-12-04T07:48:48.950Z,13.43
2022-12-04T07:51:18.780Z,12.02
2022-12-04T07:53:45.811Z,13.05
2022-12-04T07:56:13.151Z,13.00
2022-12-04T07:58:40.640Z,12.60
2022-12-04T08:01:09.257Z,13.43
2022-12-04T08:03:36.141Z,13.32
2022-12-04T08:06:04.040Z,11.48
2022-12-04T08:08:31.624Z,12.43
2022-12-04T08:10:58.766Z,12.63
2022-12-04T08:13:25.927Z,13.77
2022-12-04T08:15:52.502Z,12.18
2022-12-04T08:18:19.403Z,12.65
2022-12-04T08:20:46.130Z,12.95
2022-12-04T08:23:12.750Z,13.40
2022-12-04T08:25:40.732Z,12.35
2022-12-04T08:28:07.789Z,11.00
2022-12-04T08:30:35.387Z,12.85
2022-12-04T08:33:02.862Z,11.18
2022-12-04T08:35:29.588Z,12.27
2022-12-04T08:37:56.218Z,10.93
2022-12-04T08:40:23.325Z,11.88
2022-12-04T08:42:50.030Z,11.05
2022-12-04T08:45:16.701Z,12.23
2022-12-04T08:47:52.027Z,11.48
2022-12-04T08:50:19.139Z,11.82
2022-12-04T08:52:45.796Z,11.60
2022-12-04T08:55:12.703Z,12.27
2022-12-04T08:57:39.330Z,10.43
2022-12-04T09:00:06.700Z,10.70
2022-12-04T09:02:33.369Z,10.15
2022-12-04T09:05:00.043Z,10.43
2022-12-04T09:07:26.707Z,10.75
2022-12-04T09:09:53.379Z,10.73
2022-12-04T09:12:20.155Z,11.15
2022-12-04T09:14:46.788Z,10.75
2022-12-04T09:17:15.579Z,11.00
2022-12-04T09:19:42.343Z,10.70
2022-12-04T09:22:09.093Z,10.43
2022-12-04T09:24:35.802Z,10.10
2022-12-04T09:27:02.426Z,10.70
2022-12-04T09:29:29.121Z,11.43
2022-12-04T09:31:56.404Z,11.23
2022-12-04T09:34:23.043Z,11.48
2022-12-04T09:36:50.077Z,10.23
2022-12-04T09:39:16.660Z,10.77
2022-12-04T09:41:54.737Z,12.18
2022-12-04T09:44:24.675Z,12.45
2022-12-04T09:47:02.982Z,10.80
2022-12-04T09:49:37.151Z,12.45
2022-12-04T09:52:09.320Z,10.95
2022-12-04T09:54:41.030Z,10.43
2022-12-04T09:57:25.275Z,10.60
2022-12-04T09:59:53.188Z,10.02
2022-12-04T10:02:28.829Z,10.32
2022-12-04T10:04:56.551Z,9.48
2022-12-04T10:07:30.631Z,10.80
2022-12-04T10:10:00.182Z,9.30
2022-12-04T10:12:38.588Z,10.13
2022-12-04T10:15:20.331Z,12.68
2022-12-04T10:18:21.655Z,10.25
2022-12-04T10:20:54.365Z,10.32
2022-12-04T10:23:38.081Z,9.38
2022-12-04T10:26:09.472Z,10.50
2022-12-04T10:28:39.643Z,10.03
2022-12-04T10:31:12.008Z,10.65
2022-12-04T10:33:44.975Z,9.90
2022-12-04T10:36:15.860Z,10.38
2022-12-04T10:39:07.789Z,9.70
2022-12-04T10:41:51.167Z,9.43
2022-12-04T10:44:19.917Z,9.27
2022-12-04T10:46:47.094Z,9.30
2022-12-04T10:49:25.583Z,9.70
2022-12-04T10:51:52.337Z,10.02
2022-12-04T10:54:39.684Z,9.10
2022-12-04T10:57:08.704Z,10.30
2022-12-04T10:59:38.798Z,11.32
2022-12-04T11:02:26.893Z,9.80
2022-12-04T11:04:58.195Z,11.23
2022-12-04T11:07:33.977Z,9.85
2022-12-04T11:10:18.204Z,8.55
2022-12-04T11:12:59.626Z,11.52
2022-12-04T11:15:27.139Z,9.82
2022-12-04T11:17:54.014Z,9.88
2022-12-04T11:20:25.713Z,9.27
2022-12-04T11:22:57.898Z,8.90
2022-12-04T11:25:33.855Z,10.20
2022-12-04T11:28:02.411Z,9.45
2022-12-04T11:30:35.827Z,9.02
2022-12-04T11:33:05.781Z,11.27
2022-12-04T11:35:32.913Z,10.32
2022-12-04T11:38:15.003Z,10.10
2022-12-04T11:40:53.617Z,8.98
2022-12-04T11:43:21.572Z,9.52
2022-12-04T11:46:06.569Z,10.75
2022-12-04T11:48:43.580Z,9.60
2022-12-04T11:51:38.876Z,11.00
2022-12-04T11:54:30.566Z,9.45
2022-12-04T11:57:15.465Z,8.65
2022-12-04T11:59:49.071Z,8.52
2022-12-04T12:02:15.714Z,9.38
2022-12-04T12:05:35.663Z,9.40
2022-12-04T12:08:44.445Z,8.77
2022-12-04T12:11:36.821Z,9.70
2022-12-04T12:14:32.154Z,10.80
2022-12-04T12:16:58.716Z,10.27
2022-12-04T12:20:04.424Z,9.90
2022-12-04T12:23:16.692Z,9.43
2022-12-04T12:26:00.122Z,10.13
2022-12-04T12:28:33.065Z,10.18
2022-12-04T12:31:13.567Z,9.35
2022-12-04T12:33:46.420Z,9.23
2022-12-04T12:36:14.326Z,9.73
2022-12-04T12:38:43.744Z,10.15
2022-12-04T12:41:16.407Z,10.45
2022-12-04T12:43:48.519Z,10.55
2022-12-04T12:46:18.279Z,10.18
2022-12-04T12:49:12.721Z,10.52
2022-12-04T12:51:47.148Z,10.18
2022-12-04T12:54:37.979Z,10.50
2022-12-04T12:57:13.509Z,10.93
2022-12-04T12:59:46.856Z,10.73
2022-12-04T13:02:27.232Z,13.40
2022-12-04T13:04:57.696Z,10.68
2022-12-04T13:07:33.042Z,10.52
2022-12-04T13:10:18.196Z,10.02
2022-12-04T13:12:54.524Z,11.35
2022-12-04T13:15:25.161Z,12.20
2022-12-04T13:17:55.152Z,10.38
2022-12-04T13:20:35.624Z,10.02
2022-12-04T13:23:45.898Z,9.13
2022-12-04T13:26:33.345Z,10.27
2022-12-04T13:29:32.969Z,10.05
2022-12-04T13:32:11.008Z,10.95
2022-12-04T13:34:52.938Z,10.02
2022-12-04T13:37:32.104Z,11.90
2022-12-04T13:40:31.391Z,10.98
2022-12-04T13:43:21.896Z,11.77
2022-12-04T13:45:50.515Z,10.52
2022-12-04T13:48:36.737Z,11.35
2022-12-04T13:51:06.812Z,11.70
2022-12-04T13:53:37.464Z,11.90
2022-12-04T13:56:09.479Z,12.77
2022-12-04T13:58:37.563Z,11.20
2022-12-04T14:01:24.236Z,11.43
2022-12-04T14:03:56.148Z,10.82
2022-12-04T14:06:37.223Z,11.88
2022-12-04T14:09:08.266Z,11.27
2022-12-04T14:11:51.553Z,11.30
2022-12-04T14:14:45.638Z,12.18
2022-12-04T14:17:34.192Z,11.13
2022-12-04T14:20:07.813Z,10.90
2022-12-04T14:22:34.921Z,10.50
2022-12-04T14:25:13.919Z,11.32
2022-12-04T14:27:51.830Z,10.82
2022-12-04T14:30:38.102Z,10.40
2022-12-04T14:33:28.223Z,11.80
2022-12-04T14:36:09.571Z,12.02
2022-12-04T14:38:36.504Z,11.07
2022-12-04T14:41:04.441Z,11.55
2022-12-04T14:43:39.433Z,10.80
2022-12-04T14:46:24.198Z,10.48
2022-12-04T14:49:14.695Z,11.52
2022-12-04T14:51:59.641Z,10.48
2022-12-04T14:54:56.641Z,9.93
2022-12-04T14:58:23.753Z,10.30
2022-12-04T15:00:55.377Z,10.60
2022-12-04T15:03:22.943Z,11.13
2022-12-04T15:05:51.073Z,10.55
2022-12-04T15:08:20.262Z,11.20
2022-12-04T15:11:09.444Z,13.00
2022-12-04T15:13:38.209Z,11.88
2022-12-04T15:16:22.049Z,11.23
2022-12-04T15:18:55.717Z,10.77
2022-12-04T15:21:24.530Z,11.05
2022-12-04T15:23:51.425Z,10.68
2022-12-04T15:26:20.869Z,10.32
2022-12-04T15:28:59.559Z,10.75
2022-12-04T15:31:39.559Z,11.55
2022-12-04T15:34:19.301Z,10.05
2022-12-04T15:36:54.238Z,11.52
2022-12-04T15:39:24.879Z,11.38
2022-12-04T15:41:51.818Z,11.13
2022-12-04T15:44:22.803Z,10.98
2022-12-04T15:46:49.641Z,11.05
2022-12-04T15:49:24.489Z,10.43
2022-12-04T15:51:51.567Z,11.00
2022-12-04T15:54:24.371Z,10.38
2022-12-04T15:57:16.363Z,11.15
2022-12-04T15:59:50.185Z,11.90
2022-12-04T16:02:28.772Z,12.25
2022-12-04T16:04:55.669Z,11.98
2022-12-04T16:07:27.536Z,13.30
2022-12-04T16:10:03.977Z,11.30
2022-12-04T16:12:32.536Z,12.98
2022-12-04T16:14:59.254Z,16.60
2022-12-04T16:17:33.797Z,14.93
2022-12-04T16:20:07.693Z,14.70
2022-12-04T16:22:34.311Z,14.05
2022-12-04T16:25:00.966Z,11.27
2022-12-04T16:27:30.178Z,13.18
2022-12-04T16:29:58.773Z,13.57
2022-12-04T16:32:31.035Z,12.90
2022-12-04T16:37:28.483Z,11.27
2022-12-04T16:39:58.887Z,13.02
2022-12-04T16:42:29.714Z,13.95
2022-12-04T16:44:56.723Z,12.90
2022-12-04T16:47:23.523Z,13.40
2022-12-04T16:49:52.996Z,12.60
2022-12-04T16:52:20.460Z,12.57
2022-12-04T16:54:47.600Z,14.05
2022-12-04T16:57:14.178Z,13.15
2022-12-04T16:59:42.731Z,13.40
2022-12-04T17:02:24.347Z,12.85
2022-12-04T17:04:57.042Z,14.60
2022-12-04T17:07:26.412Z,13.02
2022-12-04T17:09:54.017Z,14.32
2022-12-04T17:12:35.806Z,13.43
2022-12-04T17:15:04.004Z,13.95
2022-12-04T17:17:30.661Z,13.25
2022-12-04T17:19:57.223Z,14.30
2022-12-04T17:22:26.412Z,14.18
2022-12-04T17:24:56.416Z,13.85
2022-12-04T17:27:25.787Z,15.02
2022-12-04T17:29:54.764Z,13.82
2022-12-04T17:32:21.782Z,16.02
2022-12-04T17:34:52.873Z,15.18
2022-12-04T17:37:22.243Z,15.02
2022-12-04T17:39:48.850Z,14.70
2022-12-04T17:42:17.316Z,15.75
2022-12-04T17:44:44.816Z,14.20
2022-12-04T17:47:12.207Z,15.18
2022-12-04T17:49:38.945Z,14.50
2022-12-04T17:52:05.604Z,14.52
2022-12-04T17:54:32.353Z,15.30
2022-12-04T17:57:03.574Z,14.40
2022-12-04T17:59:30.152Z,14.52
2022-12-04T18:01:57.989Z,15.43
2022-12-04T18:04:25.782Z,14.77
2022-12-04T18:06:53.919Z,15.07
2022-12-04T18:09:21.809Z,16.23
2022-12-04T18:11:51.267Z,16.48
2022-12-04T18:14:22.052Z,16.23
2022-12-04T18:16:55.409Z,15.77
2022-12-04T18:19:27.153Z,16.83
2022-12-04T18:22:01.872Z,15.32
2022-12-04T18:24:35.358Z,15.88
2022-12-04T18:27:07.964Z,18.80
2022-12-04T18:29:38.177Z,17.45
2022-12-04T18:32:07.915Z,15.50
2022-12-04T18:34:34.631Z,16.17
2022-12-04T18:37:02.277Z,15.32
2022-12-04T18:39:28.950Z,16.63
2022-12-04T18:42:00.322Z,15.82
2022-12-04T18:44:27.011Z,15.98
2022-12-04T18:46:53.718Z,15.55
2022-12-04T18:49:20.383Z,15.05
2022-12-04T18:51:50.089Z,16.67
2022-12-04T18:54:24.976Z,15.80
2022-12-04T18:56:52.036Z,16.45
2022-12-04T18:59:21.895Z,16.67
2022-12-04T19:01:50.181Z,17.00
2022-12-04T19:04:19.273Z,16.48
2022-12-04T19:06:51.179Z,17.48
2022-12-04T19:09:40.809Z,17.02
2022-12-04T19:12:10.839Z,16.60
2022-12-04T19:14:38.573Z,17.98
2022-12-04T19:17:07.189Z,20.38
2022-12-04T19:19:33.870Z,20.40
2022-12-04T19:22:01.103Z,19.73
2022-12-04T19:24:29.967Z,21.65
2022-12-04T19:26:56.640Z,18.92
2022-12-04T19:29:23.349Z,21.38
2022-12-04T19:31:59.093Z,21.40
2022-12-04T19:34:26.718Z,22.55
2022-12-04T19:36:54.260Z,21.33
2022-12-04T19:39:24.859Z,21.45
2022-12-04T19:41:52.757Z,22.73
2022-12-04T19:44:48.286Z,22.25
2022-12-04T19:47:11.362Z,21.85
2022-12-04T19:49:40.779Z,21.30
2022-12-04T19:52:09.054Z,21.95
2022-12-04T19:54:37.970Z,21.50
2022-12-04T19:57:04.752Z,21.42
2022-12-04T19:59:36.418Z,19.05
2022-12-04T20:02:07.009Z,20.00
2022-12-04T20:04:37.788Z,19.57
2022-12-04T20:07:05.847Z,18.45
2022-12-04T20:09:32.915Z,19.05
2022-12-04T20:12:00.821Z,18.92
2022-12-04T20:14:30.072Z,19.70
2022-12-04T20:16:59.595Z,18.75
2022-12-04T20:19:26.396Z,18.40
2022-12-04T20:21:59.048Z,20.55
2022-12-04T20:24:29.364Z,19.42
2022-12-04T20:26:56.115Z,19.95
2022-12-04T20:29:25.171Z,20.17
2022-12-04T20:31:51.877Z,21.83
2022-12-04T20:34:21.911Z,22.73
2022-12-04T20:36:50.104Z,20.05
2022-12-04T20:39:18.351Z,22.85
2022-12-04T20:41:46.743Z,22.30
2022-12-04T20:44:16.132Z,21.80
2022-12-04T20:46:43.153Z,21.15
2022-12-04T20:49:21.279Z,22.00
2022-12-04T20:51:52.101Z,22.17
2022-12-04T20:54:20.581Z,22.00
2022-12-04T20:56:48.930Z,20.05
2022-12-04T20:59:18.052Z,18.83
2022-12-04T21:01:51.683Z,21.48
2022-12-04T21:04:19.464Z,21.02
2022-12-04T21:06:46.904Z,22.55
2022-12-04T21:09:19.567Z,21.70
2022-12-04T21:11:51.006Z,21.63
2022-12-04T21:14:39.855Z,22.90
2022-12-04T21:17:09.291Z,23.13
2022-12-04T21:19:36.590Z,22.35
2022-12-04T21:22:05.200Z,24.33
2022-12-04T21:24:36.835Z,22.80
2022-12-04T21:27:08.020Z,24.05
2022-12-04T21:29:39.796Z,23.70
2022-12-04T21:32:08.078Z,24.85
2022-12-04T21:34:37.618Z,23.02
2022-12-04T21:37:06.706Z,26.58
2022-12-04T21:39:36.890Z,24.08
2022-12-04T21:42:22.482Z,24.38
2022-12-04T21:44:49.133Z,23.90
2022-12-04T21:47:16.079Z,25.20
2022-12-04T21:49:46.254Z,25.25
2022-12-04T21:52:15.550Z,25.15
2022-12-04T21:54:46.197Z,26.38
2022-12-04T21:57:12.847Z,24.02
2022-12-04T21:59:42.055Z,24.15
2022-12-04T22:02:11.788Z,24.70
2022-12-04T22:04:38.867Z,25.05
2022-12-04T22:07:08.402Z,25.10
2022-12-04T22:09:36.135Z,26.27
2022-12-04T22:12:26.476Z,24.08
2022-12-04T22:14:51.710Z,24.25
2022-12-04T22:17:18.345Z,24.05
2022-12-04T22:19:45.003Z,24.00
2022-12-04T22:22:11.680Z,24.55
2022-12-04T22:24:47.017Z,24.27
2022-12-04T22:27:16.379Z,23.85
2022-12-04T22:29:50.850Z,25.30
2022-12-04T22:32:21.004Z,24.48
2022-12-04T22:34:50.783Z,23.98
2022-12-04T22:37:22.926Z,23.63
2022-12-04T22:39:49.563Z,23.70
2022-12-04T22:42:23.348Z,24.95
2022-12-04T22:44:51.202Z,24.40
2022-12-04T22:47:20.101Z,23.50
2022-12-04T22:49:50.955Z,24.30
2022-12-04T22:52:19.012Z,25.15
2022-12-04T22:54:45.842Z,24.58
2022-12-04T22:57:12.487Z,24.40
2022-12-04T22:59:48.590Z,24.80
2022-12-04T23:02:18.079Z,24.63
2022-12-04T23:04:49.051Z,26.20
2022-12-04T23:07:15.709Z,23.15
2022-12-04T23:09:44.694Z,23.63
2022-12-04T23:12:11.303Z,23.95
2022-12-04T23:14:39.134Z,24.00
2022-12-04T23:17:08.224Z,23.60
2022-12-04T23:19:37.132Z,23.40
2022-12-04T23:22:03.801Z,24.27
2022-12-04T23:24:30.492Z,23.00
2022-12-04T23:26:57.169Z,23.65
2022-12-04T23:29:51.600Z,23.92
2022-12-04T23:32:10.397Z,22.60
2022-12-04T23:34:37.060Z,24.35
2022-12-04T23:37:03.716Z,22.85
2022-12-04T23:39:30.354Z,22.95
2022-12-04T23:41:58.910Z,22.20
2022-12-04T23:44:25.554Z,20.98
2022-12-04T23:46:52.280Z,20.95
2022-12-04T23:49:18.970Z,20.27
2022-12-04T23:51:45.560Z,22.35
2022-12-04T23:54:12.223Z,23.90
2022-12-04T23:56:38.858Z,20.80
2022-12-04T23:59:05.763Z,21.52
